CheckWX is a tool to help pilots better visualize weather data.  It is not intended as a substitute for an official pre-flight weather briefing.

16:43:04 UTC

KVNY METAR
Van Nuys Airport
Van Nuys, California, USA
Current

52 mins ago

KVNY 201551Z 36009G17KT 10SM CLR 22/06 A2994 RMK AO2 SLP130 T02170061 $
Observed
Oct-20 @ 15:51 UTC
Wind
  • 360° at 9 KTS
  • Gusting to 17 KTS
Visibility
10 SM
Flight Rules
VFR
Cloud Levels
  • Clear skies
Temperature
22°C / 72°F
Dewpoint
C / 43°F
Humidity
36%
Altimeter
29.94" Hg
Pressure
1013.92 hPa
Previous

2 hours ago

KVNY 201451Z 35011G18KT 10SM CLR 21/07 A2991 RMK AO2 SLP121 T02060067 51013 $
Observed
Oct-20 @ 14:51 UTC
Wind
  • 350° at 11 KTS
  • Gusting to 18 KTS
Visibility
10 SM
Flight Rules
VFR
Cloud Levels
  • Clear skies
Temperature
21°C / 70°F
Dewpoint
C / 45°F
Humidity
40%
Altimeter
29.91" Hg
Pressure
1012.92 hPa
Previous

3 hours ago

KVNY 201351Z VRB05KT 10SM CLR 20/07 A2990 RMK AO2 SLP117 T02000067 $
Observed
Oct-20 @ 13:51 UTC
Wind
  • Variable at 5 KTS
Visibility
10 SM
Flight Rules
VFR
Cloud Levels
  • Clear skies
Temperature
20°C / 68°F
Dewpoint
C / 45°F
Humidity
43%
Altimeter
29.9" Hg
Pressure
1012.52 hPa